createdAt,value
2022-09-11T00:00:16.640Z,1008.99
2022-09-11T00:01:16.623Z,1008.97
2022-09-11T00:02:16.655Z,1008.94
2022-09-11T00:03:16.600Z,1008.97
2022-09-11T00:04:16.598Z,1008.99
2022-09-11T00:05:16.563Z,1008.97
2022-09-11T00:06:28.449Z,1008.98
2022-09-11T00:07:16.530Z,1008.99
2022-09-11T00:08:16.510Z,1008.99
2022-09-11T00:09:16.496Z,1009.00
2022-09-11T00:10:16.481Z,1009.00
2022-09-11T00:11:16.467Z,1009.04
2022-09-11T00:12:16.458Z,1008.99
2022-09-11T00:13:16.431Z,1009.03
2022-09-11T00:14:16.414Z,1009.04
2022-09-11T00:15:16.400Z,1009.02
2022-09-11T00:16:16.433Z,1009.07
2022-09-11T00:17:16.369Z,1009.05
2022-09-11T00:18:16.346Z,1009.09
2022-09-11T00:19:16.335Z,1009.08
2022-09-11T00:20:16.395Z,1009.08
2022-09-11T00:21:16.298Z,1009.10
2022-09-11T00:22:16.287Z,1009.08
2022-09-11T00:23:16.270Z,1009.11
2022-09-11T00:24:16.252Z,1009.11
2022-09-11T00:25:16.231Z,1009.11
2022-09-11T00:26:16.216Z,1009.13
2022-09-11T00:27:16.199Z,1009.15
2022-09-11T00:28:16.188Z,1009.18
2022-09-11T00:29:16.164Z,1009.14
2022-09-11T00:30:16.147Z,1009.12
2022-09-11T00:31:16.177Z,1009.13
2022-09-11T00:32:16.113Z,1009.17
2022-09-11T00:33:16.104Z,1009.15
2022-09-11T00:34:16.082Z,1009.17
2022-09-11T00:35:16.068Z,1009.21
2022-09-11T00:36:16.070Z,1009.24
2022-09-11T00:37:16.035Z,1009.25
2022-09-11T00:38:17.479Z,1009.23
2022-09-11T00:39:16.000Z,1009.23
2022-09-11T00:40:15.985Z,1009.22
2022-09-11T00:41:15.970Z,1009.20
2022-09-11T00:42:15.951Z,1009.17
2022-09-11T00:43:15.934Z,1009.19
2022-09-11T00:44:15.919Z,1009.20
2022-09-11T00:45:15.899Z,1009.21
2022-09-11T00:46:15.883Z,1009.20
2022-09-11T00:47:15.869Z,1009.18
2022-09-11T00:48:15.848Z,1009.21
2022-09-11T00:49:15.834Z,1009.19
2022-09-11T00:50:15.818Z,1009.19
2022-09-11T00:51:15.802Z,1009.23
2022-09-11T00:52:15.801Z,1009.19
2022-09-11T00:53:15.767Z,1009.22
2022-09-11T00:54:15.751Z,1009.21
2022-09-11T00:55:15.735Z,1009.22
2022-09-11T00:56:15.720Z,1009.25
2022-09-11T00:57:15.703Z,1009.25
2022-09-11T00:58:15.687Z,1009.23
2022-09-11T00:59:15.668Z,1009.26
2022-09-11T01:00:15.649Z,1009.28
2022-09-11T01:01:15.665Z,1009.30
2022-09-11T01:02:15.702Z,1009.27
2022-09-11T01:03:15.600Z,1009.31
2022-09-11T01:04:15.585Z,1009.29
2022-09-11T01:05:15.568Z,1009.29
2022-09-11T01:06:15.553Z,1009.35
2022-09-11T01:07:15.537Z,1009.32
2022-09-11T01:08:15.534Z,1009.37
2022-09-11T01:09:15.503Z,1009.35
2022-09-11T01:10:15.479Z,1009.37
2022-09-11T01:11:15.466Z,1009.37
2022-09-11T01:12:15.500Z,1009.41
2022-09-11T01:13:15.433Z,1009.39
2022-09-11T01:14:15.416Z,1009.39
2022-09-11T01:15:15.400Z,1009.45
2022-09-11T01:16:15.419Z,1009.45
2022-09-11T01:17:15.364Z,1009.45
2022-09-11T01:18:15.348Z,1009.43
2022-09-11T01:19:15.333Z,1009.47
2022-09-11T01:20:15.320Z,1009.44
2022-09-11T01:21:15.300Z,1009.42
2022-09-11T01:22:15.284Z,1009.44
2022-09-11T01:23:15.264Z,1009.45
2022-09-11T01:24:15.274Z,1009.43
2022-09-11T01:25:15.236Z,1009.47
2022-09-11T01:26:15.216Z,1009.53
2022-09-11T01:27:15.202Z,1009.52
2022-09-11T01:28:15.181Z,1009.53
2022-09-11T01:29:15.166Z,1009.59
2022-09-11T01:30:15.144Z,1009.58
2022-09-11T01:31:15.153Z,1009.60
2022-09-11T01:32:15.116Z,1009.63
2022-09-11T01:33:15.096Z,1009.63
2022-09-11T01:34:15.082Z,1009.66
2022-09-11T01:35:15.064Z,1009.64
2022-09-11T01:36:15.050Z,1009.68
2022-09-11T01:37:15.030Z,1009.67
2022-09-11T01:38:15.012Z,1009.70
2022-09-11T01:39:15.001Z,1009.66
2022-09-11T01:40:15.050Z,1009.70
2022-09-11T01:41:14.961Z,1009.70
2022-09-11T01:42:14.947Z,1009.71
2022-09-11T01:43:14.930Z,1009.74
2022-09-11T01:44:14.910Z,1009.72
2022-09-11T01:45:14.898Z,1009.76
2022-09-11T01:46:14.879Z,1009.74
2022-09-11T01:47:14.863Z,1009.76
2022-09-11T01:48:14.850Z,1009.77
2022-09-11T01:49:14.827Z,1009.77
2022-09-11T01:50:14.810Z,1009.75
2022-09-11T01:51:14.791Z,1009.73
2022-09-11T01:52:14.777Z,1009.74
2022-09-11T01:53:14.766Z,1009.76
2022-09-11T01:54:14.756Z,1009.73
2022-09-11T01:55:14.727Z,1009.75
2022-09-11T01:56:14.733Z,1009.80
2022-09-11T01:57:14.695Z,1009.77
2022-09-11T01:58:14.673Z,1009.79
2022-09-11T01:59:14.663Z,1009.78
2022-09-11T02:00:14.644Z,1009.81
2022-09-11T02:01:14.623Z,1009.80
2022-09-11T02:02:14.654Z,1009.76
2022-09-11T02:03:14.592Z,1009.76
2022-09-11T02:04:14.575Z,1009.76
2022-09-11T02:05:14.559Z,1009.74
2022-09-11T02:06:14.543Z,1009.76
2022-09-11T02:07:14.522Z,1009.74
2022-09-11T02:08:14.511Z,1009.74
2022-09-11T02:09:14.499Z,1009.76
2022-09-11T02:10:14.545Z,1009.77
2022-09-11T02:11:14.467Z,1009.74
2022-09-11T02:12:14.462Z,1009.74
2022-09-11T02:13:14.426Z,1009.77
2022-09-11T02:14:14.408Z,1009.74
2022-09-11T02:15:14.391Z,1009.74
2022-09-11T02:16:14.398Z,1009.76
2022-09-11T02:17:14.354Z,1009.76
2022-09-11T02:18:14.338Z,1009.78
2022-09-11T02:19:14.323Z,1009.74
2022-09-11T02:20:14.304Z,1009.76
2022-09-11T02:21:14.295Z,1009.80
2022-09-11T02:22:14.269Z,1009.77
2022-09-11T02:23:14.256Z,1009.76
2022-09-11T02:24:14.239Z,1009.80
2022-09-11T02:25:14.220Z,1009.81
2022-09-11T02:26:14.203Z,1009.84
2022-09-11T02:27:14.184Z,1009.81
2022-09-11T02:28:14.189Z,1009.82
2022-09-11T02:29:14.151Z,1009.84
2022-09-11T02:30:14.136Z,1009.86
2022-09-11T02:31:14.173Z,1009.83
2022-09-11T02:32:14.103Z,1009.84
2022-09-11T02:33:14.089Z,1009.82
2022-09-11T02:34:14.070Z,1009.87
2022-09-11T02:35:14.057Z,1009.83
2022-09-11T02:36:14.036Z,1009.83
2022-09-11T02:37:14.022Z,1009.85
2022-09-11T02:38:13.999Z,1009.84
2022-09-11T02:39:13.986Z,1009.88
2022-09-11T02:40:14.020Z,1009.91
2022-09-11T02:41:13.959Z,1009.92
2022-09-11T02:42:13.933Z,1009.97
2022-09-11T02:43:13.918Z,1009.99
2022-09-11T02:44:13.921Z,1010.00
2022-09-11T02:45:13.880Z,1009.99
2022-09-11T02:46:13.867Z,1010.02
2022-09-11T02:47:13.852Z,1010.02
2022-09-11T02:48:13.830Z,1010.04
2022-09-11T02:49:13.818Z,1010.06
2022-09-11T02:50:13.800Z,1010.06
2022-09-11T02:51:13.789Z,1010.08
2022-09-11T02:52:13.769Z,1010.11
2022-09-11T02:53:13.751Z,1010.11
2022-09-11T02:54:13.732Z,1010.12
2022-09-11T02:55:13.718Z,1010.12
2022-09-11T02:56:13.702Z,1010.09
2022-09-11T02:57:13.687Z,1010.12
2022-09-11T02:58:13.670Z,1010.15
2022-09-11T02:59:13.648Z,1010.14
2022-09-11T03:00:13.653Z,1010.12
2022-09-11T03:01:13.681Z,1010.13
2022-09-11T03:02:13.611Z,1010.11
2022-09-11T03:03:13.585Z,1010.11
2022-09-11T03:04:13.568Z,1010.10
2022-09-11T03:05:13.580Z,1010.12
2022-09-11T03:06:13.536Z,1010.12
2022-09-11T03:07:13.515Z,1010.12
2022-09-11T03:08:13.501Z,1010.15
2022-09-11T03:09:13.482Z,1010.16
2022-09-11T03:10:13.465Z,1010.19
2022-09-11T03:11:13.452Z,1010.18
2022-09-11T03:12:13.431Z,1010.19
2022-09-11T03:13:13.416Z,1010.17
2022-09-11T03:14:13.400Z,1010.19
2022-09-11T03:15:13.387Z,1010.16
2022-09-11T03:16:13.498Z,1010.15
2022-09-11T03:17:13.350Z,1010.17
2022-09-11T03:18:13.329Z,1010.20
2022-09-11T03:19:13.315Z,1010.15
2022-09-11T03:20:13.297Z,1010.21
2022-09-11T03:21:13.280Z,1010.17
2022-09-11T03:22:13.265Z,1010.18
2022-09-11T03:23:13.248Z,1010.15
2022-09-11T03:24:13.232Z,1010.20
2022-09-11T03:25:13.213Z,1010.18
2022-09-11T03:26:13.193Z,1010.16
2022-09-11T03:27:13.180Z,1010.19
2022-09-11T03:28:13.163Z,1010.14
2022-09-11T03:29:13.146Z,1010.14
2022-09-11T03:30:13.129Z,1010.14
2022-09-11T03:31:13.153Z,1010.17
2022-09-11T03:32:13.121Z,1010.17
2022-09-11T03:33:13.076Z,1010.15
2022-09-11T03:34:13.063Z,1010.12
2022-09-11T03:35:13.050Z,1010.16
2022-09-11T03:36:13.029Z,1010.16
2022-09-11T03:37:13.011Z,1010.14
2022-09-11T03:38:12.995Z,1010.09
2022-09-11T03:39:12.984Z,1010.17
2022-09-11T03:40:13.026Z,1010.13
2022-09-11T03:41:12.942Z,1010.15
2022-09-11T03:42:12.937Z,1010.14
2022-09-11T03:43:12.918Z,1010.16
2022-09-11T03:44:12.898Z,1010.16
2022-09-11T03:45:12.877Z,1010.21
2022-09-11T03:46:12.859Z,1010.15
2022-09-11T03:47:12.843Z,1010.17
2022-09-11T03:48:12.848Z,1010.20
2022-09-11T03:49:12.807Z,1010.21
2022-09-11T03:50:12.794Z,1010.18
2022-09-11T03:51:12.780Z,1010.20
2022-09-11T03:52:12.759Z,1010.22
2022-09-11T03:53:12.744Z,1010.20
2022-09-11T03:54:12.723Z,1010.20
2022-09-11T03:55:12.708Z,1010.18
2022-09-11T03:56:12.691Z,1010.20
2022-09-11T03:57:12.674Z,1010.22
2022-09-11T03:58:12.655Z,1010.22
2022-09-11T03:59:12.639Z,1010.24
2022-09-11T04:00:12.620Z,1010.25
2022-09-11T04:01:12.688Z,1010.30
2022-09-11T04:02:12.598Z,1010.26
2022-09-11T04:03:12.572Z,1010.30
2022-09-11T04:04:12.583Z,1010.32
2022-09-11T04:05:12.534Z,1010.35
2022-09-11T04:06:12.522Z,1010.36
2022-09-11T04:07:12.505Z,1010.40
2022-09-11T04:08:12.487Z,1010.44
2022-09-11T04:09:12.471Z,1010.45
2022-09-11T04:10:12.452Z,1010.45
2022-09-11T04:11:12.438Z,1010.47
2022-09-11T04:12:12.426Z,1010.50
2022-09-11T04:13:12.401Z,1010.51
2022-09-11T04:14:12.385Z,1010.54
2022-09-11T04:15:12.371Z,1010.47
2022-09-11T04:16:12.394Z,1010.48
2022-09-11T04:17:12.331Z,1010.50
2022-09-11T04:18:12.317Z,1010.50
2022-09-11T04:19:12.299Z,1010.54
2022-09-11T04:20:12.308Z,1010.58
2022-09-11T04:21:12.270Z,1010.59
2022-09-11T04:22:12.350Z,1010.61
2022-09-11T04:23:12.239Z,1010.59
2022-09-11T04:24:12.215Z,1010.62
2022-09-11T04:25:12.200Z,1010.59
2022-09-11T04:26:12.186Z,1010.62
2022-09-11T04:27:12.164Z,1010.60
2022-09-11T04:28:12.151Z,1010.58
2022-09-11T04:29:12.131Z,1010.54
2022-09-11T04:30:12.117Z,1010.53
2022-09-11T04:31:12.147Z,1010.55
2022-09-11T04:32:12.083Z,1010.51
2022-09-11T04:33:12.062Z,1010.53
2022-09-11T04:34:12.049Z,1010.48
2022-09-11T04:35:12.034Z,1010.53
2022-09-11T04:36:12.042Z,1010.53
2022-09-11T04:37:11.996Z,1010.54
2022-09-11T04:38:11.981Z,1010.59
2022-09-11T04:39:11.964Z,1010.58
2022-09-11T04:40:12.010Z,1010.64
2022-09-11T04:41:11.929Z,1010.66
2022-09-11T04:42:11.920Z,1010.66
2022-09-11T04:43:11.897Z,1010.67
2022-09-11T04:44:11.883Z,1010.69
2022-09-11T04:45:11.865Z,1010.68
2022-09-11T04:46:11.847Z,1010.65
2022-09-11T04:47:11.828Z,1010.69
2022-09-11T04:48:11.814Z,1010.71
2022-09-11T04:49:11.791Z,1010.74
2022-09-11T04:50:11.778Z,1010.71
2022-09-11T04:51:11.759Z,1010.75
2022-09-11T04:52:11.768Z,1010.75
2022-09-11T04:53:11.732Z,1010.73
2022-09-11T04:54:11.713Z,1010.74
2022-09-11T04:55:11.699Z,1010.72
2022-09-11T04:56:11.680Z,1010.72
2022-09-11T04:57:11.664Z,1010.75
2022-09-11T04:58:11.648Z,1010.76
2022-09-11T04:59:11.625Z,1010.82
2022-09-11T05:00:11.612Z,1010.81
2022-09-11T05:01:11.708Z,1010.82
2022-09-11T05:02:11.618Z,1010.82
2022-09-11T05:03:11.562Z,1010.83
2022-09-11T05:04:11.545Z,1010.82
2022-09-11T05:05:11.529Z,1010.85
2022-09-11T05:06:11.507Z,1010.84
2022-09-11T05:07:11.501Z,1010.84
2022-09-11T05:08:11.509Z,1010.83
2022-09-11T05:09:11.460Z,1010.88
2022-09-11T05:10:11.442Z,1010.87
2022-09-11T05:11:11.422Z,1010.84
2022-09-11T05:12:11.409Z,1010.87
2022-09-11T05:13:11.393Z,1010.87
2022-09-11T05:14:11.375Z,1010.85
2022-09-11T05:15:11.356Z,1010.86
2022-09-11T05:16:11.395Z,1010.88
2022-09-11T05:17:11.325Z,1010.88
2022-09-11T05:18:11.305Z,1010.89
2022-09-11T05:19:11.294Z,1010.89
2022-09-11T05:20:12.117Z,1010.89
2022-09-11T05:21:11.256Z,1010.92
2022-09-11T05:22:11.249Z,1010.92
2022-09-11T05:23:11.224Z,1010.96
2022-09-11T05:24:11.292Z,1010.96
2022-09-11T05:25:11.187Z,1010.98
2022-09-11T05:26:11.171Z,1011.02
2022-09-11T05:27:11.155Z,1010.97
2022-09-11T05:28:11.144Z,1010.99
2022-09-11T05:29:11.129Z,1010.99
2022-09-11T05:30:11.102Z,1011.00
2022-09-11T05:31:11.254Z,1011.02
2022-09-11T05:32:11.070Z,1011.03
2022-09-11T05:33:11.055Z,1011.02
2022-09-11T05:34:11.043Z,1011.01
2022-09-11T05:35:11.029Z,1011.01
2022-09-11T05:36:11.005Z,1011.06
2022-09-11T05:37:10.991Z,1011.06
2022-09-11T05:38:10.968Z,1011.06
2022-09-11T05:39:10.959Z,1011.08
2022-09-11T05:40:10.977Z,1011.11
2022-09-11T05:41:10.921Z,1011.13
2022-09-11T05:42:10.903Z,1011.16
2022-09-11T05:43:10.884Z,1011.14
2022-09-11T05:44:10.873Z,1011.18
2022-09-11T05:45:10.849Z,1011.18
2022-09-11T05:46:10.841Z,1011.18
2022-09-11T05:47:10.821Z,1011.22
2022-09-11T05:48:10.799Z,1011.25
2022-09-11T05:49:10.784Z,1011.27
2022-09-11T05:50:10.771Z,1011.29
2022-09-11T05:51:10.750Z,1011.28
2022-09-11T05:52:10.734Z,1011.30
2022-09-11T05:53:10.715Z,1011.33
2022-09-11T05:54:10.701Z,1011.31
2022-09-11T05:55:10.690Z,1011.39
2022-09-11T05:56:10.688Z,1011.38
2022-09-11T05:57:10.648Z,1011.39
2022-09-11T05:58:10.633Z,1011.42
2022-09-11T05:59:10.619Z,1011.41
2022-09-11T06:00:10.598Z,1011.42
2022-09-11T06:01:10.626Z,1011.43
2022-09-11T06:02:10.615Z,1011.45
2022-09-11T06:03:13.658Z,1011.45
2022-09-11T06:04:10.533Z,1011.47
2022-09-11T06:05:10.513Z,1011.50
2022-09-11T06:06:10.504Z,1011.49
2022-09-11T06:07:10.481Z,1011.52
2022-09-11T06:08:10.462Z,1011.52
2022-09-11T06:09:10.446Z,1011.52
2022-09-11T06:10:10.429Z,1011.54
2022-09-11T06:11:10.419Z,1011.56
2022-09-11T06:12:10.417Z,1011.59
2022-09-11T06:13:10.378Z,1011.57
2022-09-11T06:14:10.364Z,1011.59
2022-09-11T06:15:24.924Z,1011.63
2022-09-11T06:16:12.567Z,1011.58
2022-09-11T06:17:10.317Z,1011.62
2022-09-11T06:18:10.295Z,1011.62
2022-09-11T06:19:10.282Z,1011.66
2022-09-11T06:20:10.261Z,1011.63
2022-09-11T06:21:10.246Z,1011.66
2022-09-11T06:22:10.235Z,1011.68
2022-09-11T06:23:10.214Z,1011.69
2022-09-11T06:24:10.193Z,1011.70
2022-09-11T06:25:10.184Z,1011.68
2022-09-11T06:26:10.162Z,1011.69
2022-09-11T06:27:10.145Z,1011.74
2022-09-11T06:28:10.148Z,1011.74
2022-09-11T06:29:10.117Z,1011.75
2022-09-11T06:30:10.091Z,1011.74
2022-09-11T06:31:10.082Z,1011.71
2022-09-11T06:32:10.068Z,1011.74
2022-09-11T06:33:10.045Z,1011.71
2022-09-11T06:34:10.026Z,1011.76
2022-09-11T06:35:10.012Z,1011.75
2022-09-11T06:36:09.997Z,1011.74
2022-09-11T06:37:09.976Z,1011.73
2022-09-11T06:38:09.961Z,1011.76
2022-09-11T06:39:09.946Z,1011.73
2022-09-11T06:40:09.980Z,1011.77
2022-09-11T06:41:09.913Z,1011.78
2022-09-11T06:42:09.896Z,1011.76
2022-09-11T06:43:09.884Z,1011.81
2022-09-11T06:44:09.885Z,1011.83
2022-09-11T06:45:09.845Z,1011.84
2022-09-11T06:46:09.871Z,1011.85
2022-09-11T06:47:09.965Z,1011.85
2022-09-11T06:48:09.797Z,1011.87
2022-09-11T06:49:09.784Z,1011.86
2022-09-11T06:50:09.759Z,1011.90
2022-09-11T06:51:09.750Z,1011.88
2022-09-11T06:52:09.730Z,1011.85
2022-09-11T06:53:09.716Z,1011.87
2022-09-11T06:54:09.693Z,1011.86
2022-09-11T06:55:09.679Z,1011.85
2022-09-11T06:56:09.662Z,1011.84
2022-09-11T06:57:09.646Z,1011.80
2022-09-11T06:58:09.627Z,1011.82
2022-09-11T06:59:09.617Z,1011.83
2022-09-11T07:00:09.617Z,1011.81
2022-09-11T07:01:09.714Z,1011.83
2022-09-11T07:02:09.676Z,1011.86
2022-09-11T07:03:09.548Z,1011.84
2022-09-11T07:04:09.532Z,1011.84
2022-09-11T07:05:09.518Z,1011.81
2022-09-11T07:06:09.499Z,1011.80
2022-09-11T07:07:09.583Z,1011.80
2022-09-11T07:08:09.467Z,1011.80
2022-09-11T07:09:09.451Z,1011.78
2022-09-11T07:10:09.439Z,1011.76
2022-09-11T07:11:09.415Z,1011.76
2022-09-11T07:12:09.405Z,1011.81
2022-09-11T07:13:09.384Z,1011.77
2022-09-11T07:14:09.367Z,1011.74
2022-09-11T07:15:09.356Z,1011.78
2022-09-11T07:16:09.425Z,1011.80
2022-09-11T07:17:09.320Z,1011.80
2022-09-11T07:18:09.301Z,1011.79
2022-09-11T07:19:09.286Z,1011.81
2022-09-11T07:20:09.271Z,1011.83
2022-09-11T07:21:09.251Z,1011.84
2022-09-11T07:22:09.238Z,1011.82
2022-09-11T07:23:09.223Z,1011.87
2022-09-11T07:24:09.208Z,1011.86
2022-09-11T07:25:09.190Z,1011.87
2022-09-11T07:26:09.171Z,1011.86
2022-09-11T07:27:09.156Z,1011.86
2022-09-11T07:28:09.138Z,1011.86
2022-09-11T07:29:09.295Z,1011.85
2022-09-11T07:30:09.105Z,1011.87
2022-09-11T07:31:09.124Z,1011.86
2022-09-11T07:32:09.092Z,1011.88
2022-09-11T07:33:09.058Z,1011.88
2022-09-11T07:34:09.043Z,1011.87
2022-09-11T07:35:09.025Z,1011.87
2022-09-11T07:36:09.019Z,1011.90
2022-09-11T07:37:08.990Z,1011.88
2022-09-11T07:38:08.972Z,1011.90
2022-09-11T07:39:08.961Z,1011.96
2022-09-11T07:40:09.040Z,1011.95
2022-09-11T07:41:08.926Z,1011.94
2022-09-11T07:42:08.912Z,1011.96
2022-09-11T07:43:08.896Z,1011.94
2022-09-11T07:44:08.882Z,1011.97
2022-09-11T07:45:08.869Z,1011.99
2022-09-11T07:46:08.902Z,1012.00
2022-09-11T07:47:08.837Z,1012.04
2022-09-11T07:48:08.836Z,1012.04
2022-09-11T07:49:08.800Z,1012.03
2022-09-11T07:50:08.784Z,1012.09
2022-09-11T07:51:08.764Z,1012.08
2022-09-11T07:52:08.757Z,1012.06
2022-09-11T07:53:08.732Z,1012.07
2022-09-11T07:54:08.719Z,1012.10
2022-09-11T07:55:08.701Z,1012.11
2022-09-11T07:56:08.688Z,1012.11
2022-09-11T07:57:08.668Z,1012.11
2022-09-11T07:58:08.656Z,1012.13
2022-09-11T07:59:08.638Z,1012.09
2022-09-11T08:00:08.624Z,1012.13
2022-09-11T08:01:08.618Z,1012.14
2022-09-11T08:02:08.668Z,1012.17
2022-09-11T08:03:08.572Z,1012.18
2022-09-11T08:04:08.575Z,1012.20
2022-09-11T08:05:08.540Z,1012.22
2022-09-11T08:06:08.523Z,1012.21
2022-09-11T08:07:08.506Z,1012.24
2022-09-11T08:08:08.495Z,1012.25
2022-09-11T08:09:08.483Z,1012.22
2022-09-11T08:10:26.518Z,1012.24
2022-09-11T08:11:08.442Z,1012.24
2022-09-11T08:12:08.427Z,1012.26
2022-09-11T08:13:09.673Z,1012.29
2022-09-11T08:14:08.399Z,1012.28
2022-09-11T08:15:08.380Z,1012.30
2022-09-11T08:16:08.410Z,1012.32
2022-09-11T08:17:08.348Z,1012.31
2022-09-11T08:18:08.331Z,1012.33
2022-09-11T08:19:08.313Z,1012.35
2022-09-11T08:20:08.317Z,1012.32
2022-09-11T08:21:12.545Z,1012.33
2022-09-11T08:22:08.265Z,1012.32
2022-09-11T08:23:08.251Z,1012.32
2022-09-11T08:24:08.235Z,1012.32
2022-09-11T08:25:08.216Z,1012.31
2022-09-11T08:26:08.204Z,1012.32
2022-09-11T08:27:08.190Z,1012.30
2022-09-11T08:28:08.167Z,1012.35
2022-09-11T08:29:08.153Z,1012.33
2022-09-11T08:30:08.139Z,1012.35
2022-09-11T08:31:08.152Z,1012.43
2022-09-11T08:32:08.106Z,1012.44
2022-09-11T08:33:08.091Z,1012.43
2022-09-11T08:34:08.077Z,1012.43
2022-09-11T08:35:08.062Z,1012.46
2022-09-11T08:36:08.060Z,1012.48
2022-09-11T08:37:08.024Z,1012.46
2022-09-11T08:38:08.011Z,1012.49
2022-09-11T08:39:07.997Z,1012.48
2022-09-11T08:40:08.005Z,1012.49
2022-09-11T08:41:07.961Z,1012.49
2022-09-11T08:42:07.943Z,1012.50
2022-09-11T08:43:07.933Z,1012.53
2022-09-11T08:44:07.913Z,1012.53
2022-09-11T08:45:07.900Z,1012.55
2022-09-11T08:46:07.899Z,1012.59
2022-09-11T08:47:07.872Z,1012.58
2022-09-11T08:48:07.854Z,1012.60
2022-09-11T08:49:07.834Z,1012.59
2022-09-11T08:50:07.820Z,1012.59
2022-09-11T08:51:07.806Z,1012.61
2022-09-11T08:52:07.809Z,1012.60
2022-09-11T08:53:12.654Z,1012.63
2022-09-11T08:54:07.758Z,1012.63
2022-09-11T08:55:07.741Z,1012.65
2022-09-11T08:56:07.723Z,1012.65
2022-09-11T08:57:07.709Z,1012.61
2022-09-11T08:58:07.691Z,1012.66
2022-09-11T08:59:07.681Z,1012.69
2022-09-11T09:00:07.660Z,1012.70
2022-09-11T09:01:07.729Z,1012.72
2022-09-11T09:02:07.656Z,1012.76
2022-09-11T09:03:07.622Z,1012.77
2022-09-11T09:04:07.605Z,1012.76
2022-09-11T09:05:07.584Z,1012.80
2022-09-11T09:06:07.570Z,1012.82
2022-09-11T09:07:07.555Z,1012.82
2022-09-11T09:08:07.564Z,1012.81
2022-09-11T09:09:07.521Z,1012.77
2022-09-11T09:10:07.507Z,1012.79
2022-09-11T09:11:07.491Z,1012.82
2022-09-11T09:12:07.477Z,1012.79
2022-09-11T09:13:07.461Z,1012.81
2022-09-11T09:14:07.595Z,1012.80
2022-09-11T09:15:07.429Z,1012.80
2022-09-11T09:16:07.452Z,1012.82
2022-09-11T09:17:07.402Z,1012.82
2022-09-11T09:18:07.383Z,1012.80
2022-09-11T09:19:07.372Z,1012.80
2022-09-11T09:20:07.354Z,1012.81
2022-09-11T09:21:07.343Z,1012.82
2022-09-11T09:22:07.326Z,1012.83
2022-09-11T09:23:07.308Z,1012.81
2022-09-11T09:24:07.317Z,1012.85
2022-09-11T09:25:07.277Z,1012.87
2022-09-11T09:26:07.262Z,1012.89
2022-09-11T09:27:07.253Z,1012.92
2022-09-11T09:28:07.238Z,1012.89
2022-09-11T09:29:07.212Z,1012.90
2022-09-11T09:30:07.201Z,1012.89
2022-09-11T09:31:07.234Z,1012.88
2022-09-11T09:32:07.177Z,1012.92
2022-09-11T09:33:11.377Z,1012.94
2022-09-11T09:34:07.138Z,1012.96
2022-09-11T09:35:07.127Z,1013.00
2022-09-11T09:36:07.116Z,1013.01
2022-09-11T09:37:07.102Z,1013.02
2022-09-11T09:38:07.077Z,1012.99
2022-09-11T09:39:07.068Z,1013.02
2022-09-11T09:40:07.127Z,1013.01
2022-09-11T09:41:07.038Z,1013.06
2022-09-11T09:42:07.018Z,1013.05
2022-09-11T09:43:07.005Z,1013.06
2022-09-11T09:44:06.991Z,1013.07
2022-09-11T09:45:06.975Z,1013.06
2022-09-11T09:46:07.010Z,1013.05
2022-09-11T09:47:06.950Z,1013.04
2022-09-11T09:48:06.941Z,1013.02
2022-09-11T09:49:06.929Z,1013.03
2022-09-11T09:50:06.901Z,1013.05
2022-09-11T09:51:06.890Z,1013.03
2022-09-11T09:52:06.869Z,1012.99
2022-09-11T09:53:06.854Z,1013.01
2022-09-11T09:54:06.840Z,1013.01
2022-09-11T09:55:06.835Z,1012.99
2022-09-11T09:56:06.846Z,1012.99
2022-09-11T09:57:06.798Z,1013.02
2022-09-11T09:58:06.782Z,1013.05
2022-09-11T09:59:06.769Z,1013.03
2022-09-11T10:00:06.755Z,1013.06
2022-09-11T10:01:06.767Z,1013.09
2022-09-11T10:02:06.825Z,1013.08
2022-09-11T10:03:06.712Z,1013.11
2022-09-11T10:04:06.701Z,1013.08
2022-09-11T10:05:06.689Z,1013.09
2022-09-11T10:06:06.666Z,1013.11
2022-09-11T10:07:06.658Z,1013.09
2022-09-11T10:08:06.637Z,1013.10
2022-09-11T10:09:06.625Z,1013.14
2022-09-11T10:10:06.609Z,1013.08
2022-09-11T10:11:06.599Z,1013.09
2022-09-11T10:12:06.611Z,1013.06
2022-09-11T10:13:19.150Z,1013.06
2022-09-11T10:14:10.159Z,1013.05
2022-09-11T10:15:06.543Z,1013.07
2022-09-11T10:16:06.730Z,1013.06
2022-09-11T10:17:06.513Z,1013.09
2022-09-11T10:18:06.502Z,1013.06
2022-09-11T10:19:06.484Z,1013.08
2022-09-11T10:20:06.471Z,1013.07
2022-09-11T10:21:08.516Z,1013.09
2022-09-11T10:22:06.442Z,1013.06
2022-09-11T10:23:06.425Z,1013.08
2022-09-11T10:24:06.415Z,1013.05
2022-09-11T10:25:06.398Z,1013.09
2022-09-11T10:26:06.382Z,1013.04
2022-09-11T10:27:06.373Z,1013.05
2022-09-11T10:28:06.381Z,1013.10
2022-09-11T10:29:06.341Z,1013.08
2022-09-11T10:30:06.333Z,1013.07
2022-09-11T10:31:06.380Z,1013.03
2022-09-11T10:32:06.310Z,1013.07
2022-09-11T10:33:06.295Z,1013.08
2022-09-11T10:34:06.276Z,1013.09
2022-09-11T10:35:06.265Z,1013.09
2022-09-11T10:36:06.255Z,1013.07
2022-09-11T10:37:06.238Z,1013.10
2022-09-11T10:38:06.221Z,1013.11
2022-09-11T10:39:06.207Z,1013.10
2022-09-11T10:40:06.285Z,1013.12
2022-09-11T10:41:06.179Z,1013.12
2022-09-11T10:42:06.161Z,1013.15
2022-09-11T10:43:06.147Z,1013.13
2022-09-11T10:44:06.161Z,1013.21
2022-09-11T10:45:06.118Z,1013.09
2022-09-11T10:46:06.146Z,1013.13
2022-09-11T10:47:06.150Z,1013.07
2022-09-11T10:48:06.079Z,1013.14
2022-09-11T10:49:06.065Z,1013.08
2022-09-11T10:50:06.057Z,1013.12
2022-09-11T10:51:06.039Z,1013.13
2022-09-11T10:52:06.033Z,1013.16
2022-09-11T10:53:06.013Z,1013.13
2022-09-11T10:54:06.000Z,1013.14
2022-09-11T10:55:05.987Z,1013.07
2022-09-11T10:56:05.977Z,1013.10
2022-09-11T10:57:06.012Z,1013.10
2022-09-11T10:58:05.946Z,1013.16
2022-09-11T10:59:06.035Z,1013.20
2022-09-11T11:00:05.947Z,1013.22
2022-09-11T11:01:05.968Z,1013.24
2022-09-11T11:02:05.919Z,1013.20
2022-09-11T11:03:05.884Z,1013.21
2022-09-11T11:04:10.398Z,1013.18
2022-09-11T11:05:05.864Z,1013.21
2022-09-11T11:06:05.857Z,1013.21
2022-09-11T11:07:05.890Z,1013.21
2022-09-11T11:08:05.824Z,1013.17
2022-09-11T11:09:05.817Z,1013.14
2022-09-11T11:10:05.798Z,1013.13
2022-09-11T11:11:05.781Z,1013.14
2022-09-11T11:12:05.777Z,1013.17
2022-09-11T11:13:05.764Z,1013.14
2022-09-11T11:14:05.749Z,1013.15
2022-09-11T11:15:05.737Z,1013.18
2022-09-11T11:16:05.782Z,1013.18
2022-09-11T11:17:05.760Z,1013.14
2022-09-11T11:18:05.700Z,1013.19
2022-09-11T11:19:05.688Z,1013.16
2022-09-11T11:20:05.680Z,1013.16
2022-09-11T11:21:05.669Z,1013.18
2022-09-11T11:22:05.660Z,1013.14
2022-09-11T11:23:05.641Z,1013.15
2022-09-11T11:24:05.631Z,1013.13
2022-09-11T11:25:05.617Z,1013.10
2022-09-11T11:26:05.615Z,1013.13
2022-09-11T11:27:05.601Z,1013.08
2022-09-11T11:28:05.591Z,1013.13
2022-09-11T11:29:05.574Z,1013.14
2022-09-11T11:30:05.568Z,1013.12
2022-09-11T11:31:05.599Z,1013.11
2022-09-11T11:32:05.565Z,1013.05
2022-09-11T11:33:05.533Z,1013.05
2022-09-11T11:34:05.524Z,1013.06
2022-09-11T11:35:05.504Z,1013.08
2022-09-11T11:36:05.496Z,1013.10
2022-09-11T11:37:05.485Z,1013.03
2022-09-11T11:38:05.471Z,1013.06
2022-09-11T11:39:05.459Z,1013.13
2022-09-11T11:40:05.489Z,1013.13
2022-09-11T11:41:05.437Z,1013.13
2022-09-11T11:42:05.426Z,1013.05
2022-09-11T11:43:05.413Z,1013.11
2022-09-11T11:44:05.405Z,1013.11
2022-09-11T11:45:05.392Z,1013.14
2022-09-11T11:46:05.427Z,1013.12
2022-09-11T11:47:05.367Z,1013.11
2022-09-11T11:48:05.377Z,1013.15
2022-09-11T11:49:05.347Z,1013.12
2022-09-11T11:50:05.335Z,1013.13
2022-09-11T11:51:05.322Z,1013.11
2022-09-11T11:52:05.310Z,1013.16
2022-09-11T11:53:05.298Z,1013.07
2022-09-11T11:54:05.388Z,1013.00
2022-09-11T11:55:05.295Z,1013.08
2022-09-11T11:56:05.266Z,1013.11
2022-09-11T11:57:05.253Z,1013.08
2022-09-11T11:58:05.243Z,1013.09
2022-09-11T11:59:05.231Z,1013.12
2022-09-11T12:00:05.223Z,1013.09
2022-09-11T12:01:05.205Z,1013.16
2022-09-11T12:02:05.268Z,1013.11
2022-09-11T12:03:05.184Z,1013.09
2022-09-11T12:04:05.190Z,1013.09
2022-09-11T12:05:05.159Z,1013.01